Time;durP1;ratioP1;P1;durP2;ratioP2;P2;SDS_P1;SDS_P2;PMS_P1;PMS_P2;Temp;Humidity;BMP_temperature;BMP_pressure;BME280_temperature;BME280_humidity;BME280_pressure;Samples;Min_cycle;Max_cycle;Signal;HPM_P1;HPM_P2
2021/04/10 00:00:20;;;;;;;17.00;10.23;;;;;;;3.33;62.38;101542.04;1738998;81;21134;-44
2021/04/10 00:02:52;;;;;;;16.57;10.55;;;;;;;3.32;62.47;101541.59;1731985;81;21628;-42
2021/04/10 00:05:23;;;;;;;16.93;10.90;;;;;;;3.29;62.49;101538.55;1742222;81;21973;-44
2021/04/10 00:07:50;;;;;;;15.15;10.00;;;;;;;3.25;62.52;101536.82;1679704;84;21166;-44
2021/04/10 00:10:20;;;;;;;15.30;10.63;;;;;;;3.22;62.62;101541.69;1729172;81;21566;-44
2021/04/10 00:12:47;;;;;;;16.23;10.93;;;;;;;3.18;62.84;101542.63;1728827;81;21138;-44
2021/04/10 00:15:17;;;;;;;15.23;10.63;;;;;;;3.16;63.13;101535.63;1731392;81;21177;-43
2021/04/10 00:17:44;;;;;;;17.77;11.03;;;;;;;3.16;63.29;101534.31;1726487;81;21160;-43
2021/04/10 00:20:16;;;;;;;13.55;10.82;;;;;;;3.16;63.33;101532.55;1726038;81;21585;-41
2021/04/10 00:22:44;;;;;;;17.23;10.30;;;;;;;3.17;63.31;101531.64;1729194;81;21146;-42
2021/04/10 00:25:13;;;;;;;14.78;10.45;;;;;;;3.18;63.42;101537.36;1730048;81;21150;-40
2021/04/10 00:27:42;;;;;;;14.83;9.93;;;;;;;3.15;63.57;101536.08;1724286;81;21570;-44
2021/04/10 00:30:14;;;;;;;15.72;10.18;;;;;;;3.13;63.61;101529.95;1725497;81;21586;-40
2021/04/10 00:32:43;;;;;;;14.38;10.38;;;;;;;3.08;63.64;101531.77;1726740;81;21126;-41
2021/04/10 00:35:12;;;;;;;16.45;10.28;;;;;;;3.04;63.67;101529.59;1726206;81;21551;-42
2021/04/10 00:37:40;;;;;;;16.52;9.60;;;;;;;3.00;63.65;101534.48;1726206;81;21349;-42
2021/04/10 00:40:08;;;;;;;15.85;10.68;;;;;;;2.99;63.70;101534.03;1727592;81;21138;-41
2021/04/10 00:42:36;;;;;;;18.27;11.70;;;;;;;3.01;63.78;101528.76;1724866;81;21178;-41
2021/04/10 00:45:06;;;;;;;15.38;11.12;;;;;;;3.00;63.78;101531.84;1725873;81;21186;-41
2021/04/10 00:47:34;;;;;;;15.00;10.28;;;;;;;3.01;63.77;101529.63;1727541;81;21166;-40
2021/04/10 00:50:02;;;;;;;17.82;12.13;;;;;;;3.00;63.80;101524.39;1729234;81;21184;-40
2021/04/10 00:52:30;;;;;;;17.80;11.68;;;;;;;2.98;63.87;101528.80;1727205;81;21166;-40
2021/04/10 00:54:59;;;;;;;15.93;11.93;;;;;;;2.96;64.00;101528.80;1725851;82;21178;-38
2021/04/10 00:57:27;;;;;;;18.95;13.05;;;;;;;2.96;63.98;101530.12;1728885;81;21150;-40
2021/04/10 00:59:54;;;;;;;16.75;11.75;;;;;;;2.97;64.08;101532.30;1728719;81;21130;-40
2021/04/10 01:02:22;;;;;;;17.95;13.48;;;;;;;2.96;64.21;101530.12;1727759;81;21166;-40
2021/04/10 01:04:50;;;;;;;15.23;12.45;;;;;;;2.96;64.51;101534.52;1731266;81;21146;-41
2021/04/10 01:07:18;;;;;;;17.62;12.68;;;;;;;2.95;64.64;101535.42;1730423;81;21122;-41
2021/04/10 01:09:47;;;;;;;21.00;13.05;;;;;;;2.93;64.90;101539.83;1654779;84;21187;-41
2021/04/10 01:12:44;;;;;;;18.77;12.73;;;;;;;2.92;65.20;101539.39;1731795;81;21146;-43
2021/04/10 01:15:46;;;;;;;23.80;13.48;;;;;;;2.92;65.40;101543.34;1727732;81;21166;-41
2021/04/10 01:18:18;;;;;;;18.48;12.68;;;;;;;2.93;65.36;101538.06;1728937;81;21689;-42
2021/04/10 01:21:10;;;;;;;20.57;12.63;;;;;;;2.91;65.19;101540.29;1731648;81;21127;-40
2021/04/10 01:24:09;;;;;;;28.40;16.62;;;;;;;2.89;65.25;101536.34;1727604;81;21158;-42
2021/04/10 01:27:04;;;;;;;28.25;15.75;;;;;;;2.88;65.35;101539.01;1729300;81;21154;-41
2021/04/10 01:29:40;;;;;;;22.02;14.20;;;;;;;2.88;65.55;101539.01;1728756;81;21151;-40
2021/04/10 01:32:10;;;;;;;22.42;15.03;;;;;;;2.87;65.53;101539.42;1729270;81;21150;-43
2021/04/10 01:35:00;;;;;;;19.85;13.48;;;;;;;2.85;65.33;101542.55;1706745;82;21146;-40
2021/04/10 01:37:31;;;;;;;22.22;12.80;;;;;;;2.84;65.24;101546.50;1731899;81;21146;-40
2021/04/10 01:40:00;;;;;;;16.73;12.63;;;;;;;2.80;65.44;101549.17;1730996;81;21142;-40
2021/04/10 01:42:30;;;;;;;18.02;12.47;;;;;;;2.79;65.52;101546.54;1725937;81;21150;-43
2021/04/10 01:45:01;;;;;;;18.48;12.05;;;;;;;2.79;65.66;101546.09;1728489;81;21155;-41
2021/04/10 01:47:29;;;;;;;21.93;14.90;;;;;;;2.83;65.65;101546.09;1727419;81;21181;-41
2021/04/10 01:49:57;;;;;;;27.70;16.27;;;;;;;2.84;65.57;101546.05;1729609;81;21141;-40
2021/04/10 01:52:27;;;;;;;22.82;15.30;;;;;;;2.81;65.67;101548.27;1709253;81;21515;-41
2021/04/10 01:54:54;;;;;;;21.27;14.47;;;;;;;2.81;65.62;101548.27;1725940;81;21633;-41
2021/04/10 01:57:23;;;;;;;21.10;14.45;;;;;;;2.79;65.53;101550.49;1708042;81;21174;-41
2021/04/10 01:59:53;;;;;;;26.23;16.35;;;;;;;2.78;65.49;101549.63;1728026;81;21154;-43
2021/04/10 02:02:22;;;;;;;24.35;14.93;;;;;;;2.77;65.45;101550.52;1703239;81;21122;-43
2021/04/10 02:04:50;;;;;;;20.40;13.53;;;;;;;2.75;65.39;101554.93;1723593;81;21134;-42
2021/04/10 02:07:23;;;;;;;22.20;14.33;;;;;;;2.73;65.47;101551.87;1710122;81;21177;-43
2021/04/10 02:09:51;;;;;;;23.00;13.28;;;;;;;2.68;65.66;101555.87;1733456;81;21130;-44
2021/04/10 02:12:24;;;;;;;25.50;14.80;;;;;;;2.66;65.77;101551.50;1725599;81;21146;-41
2021/04/10 02:14:53;;;;;;;20.52;13.28;;;;;;;2.63;65.79;101550.22;1684366;83;21158;-40
2021/04/10 02:17:21;;;;;;;23.25;13.90;;;;;;;2.60;65.74;101544.53;1729205;81;21795;-43
2021/04/10 02:19:51;;;;;;;22.62;14.38;;;;;;;2.60;65.69;101544.53;1729337;81;21138;-41
2021/04/10 02:22:20;;;;;;;22.80;14.10;;;;;;;2.57;65.64;101545.85;1733307;81;21146;-42
2021/04/10 02:24:48;;;;;;;24.02;14.70;;;;;;;2.57;65.59;101553.75;1737156;81;21181;-40
2021/04/10 02:27:16;;;;;;;23.98;15.25;;;;;;;2.53;65.54;101554.23;1710710;81;21200;-41
2021/04/10 02:29:54;;;;;;;22.87;15.50;;;;;;;2.53;65.57;101547.66;1731127;81;21312;-42
2021/04/10 02:32:58;;;;;;;21.90;13.10;;;;;;;2.53;65.56;101547.66;1731518;81;21147;-42
2021/04/10 02:35:35;;;;;;;23.67;15.30;;;;;;;2.52;65.51;101544.60;1707280;81;21122;-42
2021/04/10 02:38:04;;;;;;;23.27;15.32;;;;;;;2.49;65.38;101543.73;1650449;83;21159;-44
2021/04/10 02:40:35;;;;;;;22.22;14.05;;;;;;;2.46;65.37;101550.34;1731417;81;21139;-47
2021/04/10 02:43:06;;;;;;;22.60;13.88;;;;;;;2.46;65.44;101546.41;1732576;81;21539;-44
2021/04/10 02:45:35;;;;;;;25.72;15.98;;;;;;;2.43;65.46;101551.25;1707143;81;21174;-44
2021/04/10 02:48:08;;;;;;;20.85;13.85;;;;;;;2.42;65.44;101549.94;1732196;81;21150;-45
2021/04/10 02:50:36;;;;;;;23.40;15.43;;;;;;;2.40;65.38;101554.36;1732014;81;21150;-41
2021/04/10 02:53:06;;;;;;;19.37;13.60;;;;;;;2.38;65.30;101549.09;1733872;81;21158;-43
2021/04/10 02:55:38;;;;;;;23.60;14.55;;;;;;;2.37;65.31;101548.68;1734704;81;21162;-45
2021/04/10 02:58:09;;;;;;;21.00;14.30;;;;;;;2.36;65.25;101553.49;1719482;81;21131;-41
2021/04/10 03:00:40;;;;;;;19.90;13.25;;;;;;;2.36;65.29;101560.08;1735331;81;21181;-41
2021/04/10 03:03:09;;;;;;;22.17;13.65;;;;;;;2.35;65.33;101557.02;1734665;81;21146;-41
2021/04/10 03:05:38;;;;;;;20.10;13.55;;;;;;;2.34;65.35;101556.16;1713659;81;21669;-42
2021/04/10 03:08:07;;;;;;;19.73;13.22;;;;;;;2.34;65.41;101568.00;1733449;81;21142;-42
2021/04/10 03:10:35;;;;;;;22.22;13.48;;;;;;;2.32;65.47;101572.85;1734046;81;21150;-44
2021/04/10 03:13:03;;;;;;;21.85;14.55;;;;;;;2.31;65.29;101571.95;1708592;81;21165;-42
2021/04/10 03:15:32;;;;;;;19.73;13.10;;;;;;;2.27;65.22;101574.20;1681007;81;21149;-45
2021/04/10 03:18:01;;;;;;;22.07;14.03;;;;;;;2.24;65.23;101574.64;1739448;81;21177;-42
2021/04/10 03:20:30;;;;;;;18.42;13.53;;;;;;;2.21;65.22;101574.66;1729625;81;21137;-42
2021/04/10 03:23:00;;;;;;;19.27;13.62;;;;;;;2.20;65.31;101571.61;1731124;81;21426;-43
2021/04/10 03:25:29;;;;;;;17.77;13.88;;;;;;;2.20;65.28;101572.48;1733237;81;21149;-43
2021/04/10 03:27:58;;;;;;;21.27;14.00;;;;;;;2.23;65.41;101575.53;1733237;81;21169;-41
2021/04/10 03:30:26;;;;;;;23.22;13.62;;;;;;;2.26;65.53;101576.37;1737832;81;21598;-41
2021/04/10 03:32:54;;;;;;;24.30;14.43;;;;;;;2.28;65.56;101579.01;1730359;81;21167;-41
2021/04/10 03:35:26;;;;;;;20.20;13.38;;;;;;;2.28;65.63;101583.83;1636256;84;21186;-41
2021/04/10 03:37:56;;;;;;;18.15;12.75;;;;;;;2.27;65.81;101582.09;1731262;81;21146;-41
2021/04/10 03:40:24;;;;;;;22.48;13.30;;;;;;;2.27;65.98;101580.77;1715934;81;21586;-40
2021/04/10 03:42:54;;;;;;;21.07;14.18;;;;;;;2.28;66.09;101577.69;1716131;81;21123;-41
2021/04/10 03:45:23;;;;;;;22.22;12.70;;;;;;;2.28;66.13;101582.95;1736306;81;21674;-41
2021/04/10 03:47:55;;;;;;;19.60;14.47;;;;;;;2.29;66.24;101584.28;1729521;81;21118;-43
2021/04/10 03:50:24;;;;;;;19.67;12.00;;;;;;;2.29;66.37;101584.69;1732008;81;21597;-42
2021/04/10 03:52:53;;;;;;;18.20;13.22;;;;;;;2.31;66.47;101589.51;1733612;81;21134;-41
2021/04/10 03:55:22;;;;;;;18.62;12.95;;;;;;;2.31;66.54;101581.61;1734385;81;21114;-43
2021/04/10 03:57:52;;;;;;;18.62;12.98;;;;;;;2.32;66.68;101585.56;1711255;81;21141;-42
2021/04/10 04:00:21;;;;;;;20.92;12.80;;;;;;;2.31;66.82;101585.11;1733773;81;21118;-42
2021/04/10 04:02:51;;;;;;;20.77;13.18;;;;;;;2.35;66.91;101584.67;1728021;81;21589;-41
2021/04/10 04:05:18;;;;;;;18.48;12.95;;;;;;;2.35;67.03;101590.80;1732781;81;21157;-41
2021/04/10 04:07:46;;;;;;;18.65;13.93;;;;;;;2.37;67.25;101589.48;1734523;81;21141;-41
2021/04/10 04:10:14;;;;;;;20.15;13.78;;;;;;;2.39;67.56;101583.74;1729192;81;21677;-41
2021/04/10 04:12:43;;;;;;;21.05;13.90;;;;;;;2.42;67.85;101590.74;1728780;81;21151;-40
2021/04/10 04:15:11;;;;;;;19.50;12.18;;;;;;;2.45;68.09;101590.30;1732915;81;21106;-41
2021/04/10 04:17:39;;;;;;;19.90;12.28;;;;;;;2.48;68.26;101589.41;1730592;81;21149;-42
2021/04/10 04:20:08;;;;;;;20.08;14.18;;;;;;;2.51;68.50;101592.00;1734157;81;21166;-41
2021/04/10 04:22:36;;;;;;;21.70;13.90;;;;;;;2.53;68.88;101584.52;1674504;84;21166;-39
2021/04/10 04:25:07;;;;;;;17.87;13.10;;;;;;;2.57;69.17;101591.94;1734029;81;21548;-44
2021/04/10 04:27:35;;;;;;;18.32;13.00;;;;;;;2.62;69.43;101587.95;1732425;81;21142;-44
2021/04/10 04:30:05;;;;;;;21.40;13.25;;;;;;;2.66;69.55;101589.70;1734504;81;21174;-41
2021/04/10 04:32:32;;;;;;;21.55;13.45;;;;;;;2.70;69.61;101591.43;1730362;81;21157;-41
2021/04/10 04:35:00;;;;;;;23.02;13.15;;;;;;;2.73;69.62;101589.63;1729568;81;21166;-42
2021/04/10 04:37:39;;;;;;;18.95;13.53;;;;;;;2.77;69.67;101588.73;1729552;81;21147;-48
2021/04/10 04:40:14;;;;;;;19.87;12.43;;;;;;;2.82;69.72;101586.02;1730498;81;22151;-43
2021/04/10 04:42:41;;;;;;;17.65;12.33;;;;;;;2.87;69.67;101582.03;1733621;81;21146;-45
2021/04/10 04:45:09;;;;;;;18.17;12.65;;;;;;;2.93;69.38;101589.91;1726715;81;21165;-45
2021/04/10 04:47:37;;;;;;;17.65;11.93;;;;;;;2.99;69.07;101593.78;1731802;81;21407;-44
2021/04/10 04:50:06;;;;;;;20.88;13.08;;;;;;;3.06;68.87;101594.61;1735652;81;21146;-46
2021/04/10 04:52:33;;;;;;;16.75;11.88;;;;;;;3.13;68.65;101586.63;1735272;81;21142;-44
2021/04/10 04:55:02;;;;;;;17.90;11.93;;;;;;;3.21;68.40;101593.13;1732180;81;21183;-45
2021/04/10 04:57:31;;;;;;;17.77;13.85;;;;;;;3.28;68.32;101584.27;1730648;81;21158;-44
2021/04/10 04:59:59;;;;;;;18.98;12.93;;;;;;;3.35;68.09;101589.91;1732690;81;21267;-43
2021/04/10 05:02:26;;;;;;;20.62;13.28;;;;;;;3.44;67.68;101589.79;1728853;81;21134;-44
2021/04/10 05:04:54;;;;;;;19.30;13.70;;;;;;;3.51;67.14;101584.01;1728529;81;21173;-43
2021/04/10 05:07:22;;;;;;;19.65;13.58;;;;;;;3.60;66.92;101589.19;1730739;81;21142;-44
2021/04/10 05:09:49;;;;;;;17.45;12.88;;;;;;;3.69;66.87;101593.00;1733434;81;21182;-44
2021/04/10 05:12:17;;;;;;;21.42;13.35;;;;;;;3.75;66.74;101589.86;1673719;83;21674;-44
2021/04/10 05:14:44;;;;;;;18.57;13.38;;;;;;;3.80;66.76;101586.27;1733212;81;21581;-42
2021/04/10 05:17:14;;;;;;;18.10;12.73;;;;;;;3.88;66.55;101586.16;1729992;81;21158;-42
2021/04/10 05:19:43;;;;;;;17.87;13.48;;;;;;;3.94;66.09;101583.45;1663657;83;21178;-42
2021/04/10 05:22:10;;;;;;;20.68;12.98;;;;;;;4.03;65.46;101588.63;1729175;81;21158;-44
2021/04/10 05:24:38;;;;;;;18.98;13.22;;;;;;;4.11;65.01;101585.42;1728349;81;21153;-44
2021/04/10 05:27:06;;;;;;;23.20;14.55;;;;;;;4.20;64.77;101585.72;1731659;81;21153;-42
2021/04/10 05:29:33;;;;;;;20.43;13.18;;;;;;;4.28;64.63;101587.82;1734254;81;21162;-43
2021/04/10 05:32:01;;;;;;;17.77;12.15;;;;;;;4.37;64.83;101585.93;1728370;81;21611;-43
2021/04/10 05:34:29;;;;;;;14.13;10.68;;;;;;;4.46;64.13;101589.73;1726585;81;21150;-45
2021/04/10 05:36:56;;;;;;;16.45;11.28;;;;;;;4.57;63.92;101585.62;1734609;81;21531;-47
2021/04/10 05:39:24;;;;;;;16.77;11.78;;;;;;;4.66;63.63;101581.06;1728534;81;21355;-47
2021/04/10 05:41:54;;;;;;;15.23;10.57;;;;;;;4.76;63.39;101574.72;1671560;84;21163;-46
2021/04/10 05:44:22;;;;;;;14.23;10.95;;;;;;;4.88;63.63;101574.07;1729904;81;21888;-47
2021/04/10 05:46:49;;;;;;;15.30;10.72;;;;;;;4.98;63.58;101569.91;1731283;81;22113;-46
2021/04/10 05:49:18;;;;;;;15.72;11.03;;;;;;;5.09;62.84;101575.02;1729767;81;21207;-46
2021/04/10 05:51:46;;;;;;;12.65;8.60;;;;;;;5.22;62.54;101574.34;1730265;81;21189;-47
2021/04/10 05:54:13;;;;;;;13.10;9.35;;;;;;;5.33;62.20;101579.41;1733233;81;21604;-47
2021/04/10 05:56:41;;;;;;;13.32;8.75;;;;;;;5.43;61.51;101573.03;1729155;81;21165;-47
2021/04/10 05:59:09;;;;;;;13.03;9.10;;;;;;;5.55;61.04;101580.73;1730116;81;21153;-46
2021/04/10 06:01:37;;;;;;;12.60;9.80;;;;;;;5.68;59.85;101571.22;1731840;81;21208;-45
2021/04/10 06:04:05;;;;;;;12.20;9.05;;;;;;;5.81;59.01;101577.98;1727673;81;21162;-44
2021/04/10 06:06:34;;;;;;;15.35;9.08;;;;;;;5.93;57.80;101574.22;1727291;81;21178;-48
2021/04/10 06:09:02;;;;;;;12.78;8.63;;;;;;;6.05;57.09;101579.28;1728871;81;21989;-43
2021/04/10 06:11:30;;;;;;;11.53;8.43;;;;;;;6.19;56.22;101582.92;1728707;81;21159;-49
2021/04/10 06:13:57;;;;;;;9.13;7.42;;;;;;;6.31;55.92;101583.09;1728377;81;22013;-44
2021/04/10 06:16:25;;;;;;;11.78;7.05;;;;;;;6.41;54.76;101574.89;1729652;81;21154;-45
2021/04/10 06:18:54;;;;;;;12.47;8.83;;;;;;;6.54;54.25;101579.44;1731796;81;21138;-45
2021/04/10 06:21:23;;;;;;;11.03;7.67;;;;;;;6.65;54.11;101581.81;1732564;81;21150;-44
2021/04/10 06:23:51;;;;;;;8.40;6.67;;;;;;;6.75;53.72;101570.53;1728899;81;21158;-44
2021/04/10 06:26:19;;;;;;;8.03;6.40;;;;;;;6.85;52.75;101567.59;1732988;81;21122;-44
2021/04/10 06:28:47;;;;;;;8.43;5.75;;;;;;;6.97;51.00;101562.90;1734118;81;21713;-44
2021/04/10 06:31:15;;;;;;;10.53;6.53;;;;;;;7.09;50.48;101560.79;1736304;81;21142;-45
2021/04/10 06:33:42;;;;;;;8.60;6.40;;;;;;;7.22;49.68;101561.78;1673350;84;21206;-45
2021/04/10 06:36:12;;;;;;;6.97;5.15;;;;;;;7.33;48.03;101560.59;1732661;81;21114;-44
2021/04/10 06:38:40;;;;;;;7.25;5.60;;;;;;;7.48;45.79;101560.58;1736407;81;21145;-44
2021/04/10 06:41:14;;;;;;;5.83;4.22;;;;;;;7.62;45.26;101563.31;1694530;83;21158;-45
2021/04/10 06:43:43;;;;;;;7.72;4.97;;;;;;;7.72;44.38;101559.02;1708739;81;21126;-44
2021/04/10 06:46:11;;;;;;;7.33;4.83;;;;;;;7.83;43.85;101563.99;1730117;81;21414;-44
2021/04/10 06:48:40;;;;;;;7.67;5.58;;;;;;;7.96;43.29;101571.12;1734331;81;21178;-45
2021/04/10 06:51:08;;;;;;;6.97;5.12;;;;;;;8.05;43.11;101568.20;1729260;81;21142;-45
2021/04/10 06:53:45;;;;;;;9.35;4.78;;;;;;;8.15;43.18;101569.66;1732551;81;21162;-49
2021/04/10 06:56:16;;;;;;;7.47;4.55;;;;;;;8.24;42.58;101569.37;1729823;81;21150;-43
2021/04/10 06:59:32;;;;;;;5.60;4.45;;;;;;;8.37;42.53;101567.20;1888342;74;22855;-43
2021/04/10 07:02:00;;;;;;;7.28;4.90;;;;;;;8.42;42.72;101568.42;1768716;79;21137;-45
2021/04/10 07:04:27;;;;;;;7.17;4.87;;;;;;;8.53;41.68;101568.06;1773105;79;21133;-43
2021/04/10 07:06:55;;;;;;;5.75;4.37;;;;;;;8.60;40.23;101570.47;1772040;79;21177;-43
2021/04/10 07:09:23;;;;;;;6.58;4.33;;;;;;;8.68;40.37;101570.67;1775340;79;21208;-43
2021/04/10 07:11:55;;;;;;;5.45;4.78;;;;;;;8.74;40.83;101568.66;1765122;79;21157;-44
2021/04/10 07:14:24;;;;;;;8.10;4.50;;;;;;;8.81;41.02;101566.20;1773160;79;21133;-44
2021/04/10 07:16:55;;;;;;;5.60;4.33;;;;;;;8.90;41.17;101568.17;1772332;79;21165;-42
2021/04/10 07:19:26;;;;;;;6.75;4.15;;;;;;;8.99;40.90;101574.48;1775207;79;21157;-44
2021/04/10 07:22:08;;;;;;;5.87;4.20;;;;;;;9.06;40.71;101569.36;1776959;79;21384;-44
2021/04/10 07:24:47;;;;;;;6.97;5.33;;;;;;;9.13;40.98;101564.23;1767973;79;21673;-44
2021/04/10 07:27:29;;;;;;;6.85;4.17;;;;;;;9.24;40.75;101571.83;1760690;79;21180;-44
2021/04/10 07:30:00;;;;;;;4.80;3.62;;;;;;;9.31;40.25;101570.69;1755972;79;21166;-46
2021/04/10 07:32:35;;;;;;;5.12;4.17;;;;;;;9.39;38.40;101573.94;1781542;78;21573;-45
2021/04/10 07:35:10;;;;;;;9.15;4.47;;;;;;;9.46;38.36;101569.27;1756583;80;21575;-44
2021/04/10 07:37:48;;;;;;;6.45;4.62;;;;;;;9.57;38.89;101569.72;1756095;79;22981;-44
2021/04/10 07:40:22;;;;;;;6.37;4.30;;;;;;;9.63;37.57;101566.84;1730145;80;21928;-42
2021/04/10 07:42:50;;;;;;;5.20;3.60;;;;;;;9.63;37.57;101566.84;1728424;80;21110;-43
2021/04/10 07:45:33;;;;;;;5.60;4.05;;;;;;;9.66;37.87;101562.73;1729714;82;21891;-47
2021/04/10 07:48:17;;;;;;;5.30;4.42;;;;;;;9.75;38.07;101562.39;1733492;80;21126;-45
2021/04/10 07:50:46;;;;;;;6.50;4.95;;;;;;;9.75;38.07;101562.39;1729558;80;21106;-47
2021/04/10 07:53:28;;;;;;;5.72;4.55;;;;;;;9.87;38.58;101557.51;1730005;80;21148;-47
2021/04/10 07:55:58;;;;;;;5.40;4.42;;;;;;;9.87;38.58;101557.51;1733753;80;21130;-44
2021/04/10 07:58:32;;;;;;;5.30;4.42;;;;;;;9.98;38.85;101553.98;1737024;80;21125;-45
2021/04/10 08:01:06;;;;;;;6.95;5.10;;;;;;;9.98;38.85;101553.98;1730126;80;21145;-45
2021/04/10 08:03:43;;;;;;;7.47;4.42;;;;;;;10.05;37.70;101554.12;1683332;83;21153;-45
2021/04/10 08:06:14;;;;;;;7.08;5.03;;;;;;;10.10;37.58;101554.80;1709893;82;21538;-45
2021/04/10 08:08:49;;;;;;;7.47;5.60;;;;;;;10.12;37.61;101548.95;1715869;82;21446;-45
2021/04/10 08:11:17;;;;;;;7.08;5.60;;;;;;;10.17;38.08;101556.77;1708256;82;21581;-45
2021/04/10 08:13:58;;;;;;;6.67;4.47;;;;;;;10.28;36.81;101551.03;1711510;82;21149;-44
2021/04/10 08:16:26;;;;;;;6.17;4.83;;;;;;;10.28;36.81;101551.03;1713953;82;21157;-42
2021/04/10 08:18:57;;;;;;;6.15;5.08;;;;;;;10.31;37.06;101554.47;1705622;82;21146;-42
2021/04/10 08:21:37;;;;;;;6.62;5.12;;;;;;;10.33;36.77;101549.95;1707813;82;21679;-42
2021/04/10 08:24:27;;;;;;;5.72;4.33;;;;;;;10.39;37.87;101548.82;1711817;82;21141;-43
2021/04/10 08:27:02;;;;;;;6.15;4.03;;;;;;;10.47;36.99;101552.03;1710225;82;21146;-43
2021/04/10 08:29:30;;;;;;;5.12;4.08;;;;;;;10.55;36.77;101543.71;1710618;82;21158;-46
2021/04/10 08:31:58;;;;;;;5.40;4.65;;;;;;;10.61;37.13;101546.14;1713364;82;21153;-47
2021/04/10 08:34:26;;;;;;;6.08;4.78;;;;;;;10.68;35.99;101548.06;1709472;82;21169;-48
2021/04/10 08:36:58;;;;;;;5.55;4.00;;;;;;;10.72;35.96;101543.02;1704520;82;21562;-46
2021/04/10 08:39:34;;;;;;;6.65;4.37;;;;;;;10.75;36.42;101539.73;1700037;82;21158;-42
2021/04/10 08:42:03;;;;;;;5.25;4.37;;;;;;;10.82;34.89;101536.35;1701098;82;21146;-42
2021/04/10 08:44:33;;;;;;;6.03;4.35;;;;;;;10.86;34.68;101533.97;1700370;82;21143;-45
2021/04/10 08:47:02;;;;;;;8.43;4.83;;;;;;;10.89;35.60;101533.83;1699922;82;21567;-46
2021/04/10 08:49:35;;;;;;;6.55;4.80;;;;;;;10.95;35.80;101538.02;1698428;83;21688;-44
2021/04/10 08:52:07;;;;;;;6.28;4.90;;;;;;;11.00;35.43;101532.88;1695786;82;21162;-44
2021/04/10 08:54:36;;;;;;;6.53;5.25;;;;;;;11.04;35.03;101541.16;1696848;82;21268;-48
2021/04/10 08:57:08;;;;;;;5.95;4.95;;;;;;;11.08;35.77;101543.22;1697648;82;21154;-44
2021/04/10 08:59:47;;;;;;;5.65;4.47;;;;;;;11.14;35.93;101536.77;1691162;82;21138;-41
2021/04/10 09:02:20;;;;;;;6.25;4.53;;;;;;;11.18;35.89;101537.01;1700911;82;21660;-42
2021/04/10 09:05:07;;;;;;;7.50;5.28;;;;;;;11.24;36.21;101532.27;1697251;82;21134;-44
2021/04/10 09:07:52;;;;;;;6.85;5.10;;;;;;;11.32;36.13;101536.41;1698607;82;21155;-44
2021/04/10 09:10:31;;;;;;;5.80;4.92;;;;;;;11.39;35.85;101529.38;1693222;82;21649;-46
2021/04/10 09:13:14;;;;;;;5.87;4.33;;;;;;;11.48;35.69;101532.95;1697602;82;21149;-46
2021/04/10 09:15:42;;;;;;;6.08;4.40;;;;;;;11.53;34.77;101522.53;1695823;82;21645;-43
2021/04/10 09:18:10;;;;;;;5.65;4.55;;;;;;;11.56;34.86;101518.38;1703348;82;21126;-45
2021/04/10 09:20:46;;;;;;;6.58;5.17;;;;;;;11.57;35.03;101522.33;1695316;82;21591;-45
2021/04/10 09:23:30;;;;;;;5.85;4.78;;;;;;;11.61;35.19;101525.71;1697281;82;21138;-45
2021/04/10 09:26:17;;;;;;;5.62;4.50;;;;;;;11.65;34.90;101521.50;1697134;82;21146;-42
2021/04/10 09:29:09;;;;;;;7.53;4.75;;;;;;;11.69;34.76;101518.20;1696667;82;21170;-47
2021/04/10 09:32:12;;;;;;;7.17;4.87;;;;;;;11.73;34.59;101518.46;1696905;84;21158;-46
2021/04/10 09:34:54;;;;;;;6.78;5.08;;;;;;;11.74;34.67;101514.84;1697139;82;21149;-45
2021/04/10 09:37:29;;;;;;;6.53;4.60;;;;;;;11.77;35.88;101512.49;1695186;82;21161;-47
2021/04/10 09:40:06;;;;;;;5.53;4.90;;;;;;;11.84;34.89;101516.17;1707219;82;21169;-46
2021/04/10 09:45:31;;;;;;;7.85;5.10;;;;;;;11.90;35.01;101498.52;1698842;82;21130;-46
2021/04/10 09:48:06;;;;;;;11.68;5.67;;;;;;;11.96;35.05;101508.52;1695737;82;21154;-45
2021/04/10 09:50:39;;;;;;;6.30;4.90;;;;;;;12.02;35.17;101510.44;1703098;82;21133;-45
2021/04/10 09:53:11;;;;;;;6.50;5.08;;;;;;;12.06;35.01;101502.65;1703287;82;21162;-45
2021/04/10 09:55:48;;;;;;;9.20;4.65;;;;;;;12.10;33.86;101491.36;1708574;82;21573;-45
2021/04/10 09:58:20;;;;;;;7.08;5.72;;;;;;;12.11;34.05;101491.26;1694300;82;21154;-45
2021/04/10 10:00:54;;;;;;;6.85;5.12;;;;;;;12.16;34.37;101484.83;1684512;83;21569;-46
2021/04/10 10:03:24;;;;;;;5.85;4.72;;;;;;;12.19;33.52;101497.56;1699002;82;21149;-45
2021/04/10 10:05:54;;;;;;;7.42;5.03;;;;;;;12.20;33.55;101495.30;1695430;82;21193;-49
2021/04/10 10:08:30;;;;;;;6.70;4.72;;;;;;;12.20;33.77;101480.59;1698896;82;21122;-46
2021/04/10 10:11:01;;;;;;;7.40;5.50;;;;;;;12.23;34.00;101485.78;1701170;83;21146;-45
2021/04/10 10:13:33;;;;;;;7.40;5.58;;;;;;;12.28;34.25;101474.88;1703042;82;21650;-43
2021/04/10 10:16:01;;;;;;;5.35;4.30;;;;;;;12.33;34.51;101483.05;1663836;84;21582;-48
2021/04/10 10:18:43;;;;;;;6.47;4.62;;;;;;;12.39;34.46;101475.66;1704173;82;21174;-48
2021/04/10 10:21:17;;;;;;;6.95;4.87;;;;;;;12.44;34.07;101477.16;1694861;82;21166;-46
2021/04/10 10:23:59;;;;;;;4.15;3.75;;;;;;;12.50;33.73;101466.64;1700817;82;21122;-46
2021/04/10 10:26:36;;;;;;;6.25;4.00;;;;;;;12.55;33.71;101472.62;1696098;82;21149;-44
2021/04/10 10:29:16;;;;;;;6.28;4.72;;;;;;;12.61;33.79;101472.28;1701618;82;21138;-44
2021/04/10 10:31:55;;;;;;;5.87;4.25;;;;;;;12.67;33.81;101467.95;1698176;82;21166;-46
2021/04/10 10:34:25;;;;;;;10.53;7.85;;;;;;;12.72;33.77;101466.38;1696848;84;21164;-46
2021/04/10 10:36:55;;;;;;;7.03;5.53;;;;;;;12.76;33.16;101466.62;1697471;82;21679;-44
2021/04/10 10:39:33;;;;;;;5.40;4.05;;;;;;;12.78;33.01;101464.73;1700404;82;21148;-45
2021/04/10 10:42:02;;;;;;;6.33;3.87;;;;;;;12.83;33.03;101465.84;1699664;82;21153;-44
2021/04/10 10:44:31;;;;;;;6.10;3.95;;;;;;;12.85;32.64;101461.24;1700357;82;21158;-42
2021/04/10 10:47:03;;;;;;;4.78;4.20;;;;;;;12.87;33.03;101465.57;1699253;82;21146;-42
2021/04/10 10:49:31;;;;;;;5.37;4.20;;;;;;;12.91;32.44;101451.56;1696095;82;21889;-45
2021/04/10 10:52:00;;;;;;;4.92;3.77;;;;;;;12.94;32.78;101452.73;1699915;84;21126;-42
2021/04/10 10:54:36;;;;;;;4.62;4.17;;;;;;;12.97;33.05;101456.58;1695551;82;21150;-47
2021/04/10 10:57:15;;;;;;;6.58;4.65;;;;;;;13.03;32.78;101452.26;1695769;82;22006;-44
2021/04/10 10:59:45;;;;;;;7.28;4.08;;;;;;;13.05;32.99;101449.00;1691712;84;21170;-46
2021/04/10 11:02:19;;;;;;;6.72;4.00;;;;;;;13.09;32.16;101445.70;1700693;82;21111;-44
2021/04/10 11:04:47;;;;;;;5.42;4.30;;;;;;;13.11;32.06;101439.31;1701701;82;21146;-43
2021/04/10 11:07:15;;;;;;;5.80;4.33;;;;;;;13.14;32.37;101436.95;1702301;82;21574;-41
2021/04/10 11:09:44;;;;;;;5.67;4.03;;;;;;;13.16;32.36;101430.55;1676428;84;21173;-44
2021/04/10 11:12:15;;;;;;;7.67;5.37;;;;;;;13.20;32.67;101438.83;1700507;82;21367;-45
2021/04/10 11:14:46;;;;;;;7.42;4.60;;;;;;;13.25;32.97;101435.88;1699812;82;21142;-41
2021/04/10 11:17:32;;;;;;;7.25;3.67;;;;;;;13.31;32.74;101426.22;1697544;82;21505;-45
2021/04/10 11:20:02;;;;;;;4.85;3.42;;;;;;;13.35;32.30;101420.20;1699535;84;21146;-45
2021/04/10 11:22:29;;;;;;;6.47;3.70;;;;;;;13.39;32.38;101423.97;1692611;82;21134;-43
2021/04/10 11:25:00;;;;;;;4.80;3.35;;;;;;;13.43;32.24;101424.68;1697752;82;21177;-42
2021/04/10 11:27:34;;;;;;;5.80;3.70;;;;;;;13.47;30.67;101420.00;1701801;82;21449;-46
2021/04/10 11:30:12;;;;;;;4.45;3.50;;;;;;;13.48;31.06;101406.98;1698476;82;21649;-46
2021/04/10 11:32:45;;;;;;;5.25;3.50;;;;;;;13.50;31.18;101415.32;1701636;82;21643;-45
2021/04/10 11:35:20;;;;;;;5.37;3.45;;;;;;;13.53;31.16;101408.48;1699206;83;21593;-41
2021/04/10 11:37:54;;;;;;;5.35;3.60;;;;;;;13.57;30.52;101411.83;1699785;82;21107;-40
2021/04/10 11:40:26;;;;;;;5.80;3.65;;;;;;;13.61;30.20;101404.02;1702550;82;21150;-42
2021/04/10 11:42:59;;;;;;;6.83;3.42;;;;;;;13.61;30.14;101398.19;1696792;82;21126;-44
2021/04/10 11:45:37;;;;;;;4.67;2.98;;;;;;;13.63;30.39;101403.44;1703143;82;21197;-45